createdAt,value
2022-09-23T00:00:08.461Z,10.98
2022-09-23T00:02:35.764Z,10.90
2022-09-23T00:05:04.960Z,10.87
2022-09-23T00:07:32.325Z,10.90
2022-09-23T00:09:59.736Z,10.78
2022-09-23T00:12:27.088Z,10.87
2022-09-23T00:14:54.430Z,10.81
2022-09-23T00:17:21.741Z,10.77
2022-09-23T00:19:49.133Z,10.65
2022-09-23T00:22:18.203Z,10.79
2022-09-23T00:24:45.506Z,10.73
2022-09-23T00:27:12.838Z,10.75
2022-09-23T00:29:40.121Z,10.66
2022-09-23T00:32:07.393Z,10.67
2022-09-23T00:34:34.669Z,10.60
2022-09-23T00:37:01.896Z,10.56
2022-09-23T00:39:30.997Z,10.54
2022-09-23T00:41:58.301Z,10.58
2022-09-23T00:44:44.338Z,10.54
2022-09-23T00:47:16.660Z,10.56
2022-09-23T00:49:45.279Z,10.54
2022-09-23T00:52:16.559Z,10.61
2022-09-23T00:54:47.010Z,10.53
2022-09-23T00:57:17.327Z,10.46
2022-09-23T00:59:44.710Z,10.45
2022-09-23T01:02:14.096Z,10.44
2022-09-23T01:04:42.080Z,10.41
2022-09-23T01:07:09.358Z,10.40
2022-09-23T01:09:37.070Z,10.35
2022-09-23T01:12:21.570Z,10.29
2022-09-23T01:14:56.241Z,10.34
2022-09-23T01:17:35.509Z,10.30
2022-09-23T01:20:30.569Z,10.22
2022-09-23T01:23:11.655Z,10.23
2022-09-23T01:25:59.836Z,10.25
2022-09-23T01:28:46.644Z,10.16
2022-09-23T01:31:22.257Z,10.20
2022-09-23T01:33:54.009Z,10.10
2022-09-23T01:36:26.225Z,10.06
2022-09-23T01:38:59.116Z,10.06
2022-09-23T01:41:42.213Z,10.02
2022-09-23T01:44:13.250Z,9.99
2022-09-23T01:46:49.273Z,10.08
2022-09-23T01:49:22.989Z,9.92
2022-09-23T01:51:56.962Z,9.96
2022-09-23T01:54:30.296Z,10.05
2022-09-23T01:57:02.790Z,10.06
2022-09-23T01:59:34.785Z,10.09
2022-09-23T02:02:08.876Z,10.03
2022-09-23T02:04:44.105Z,10.06
2022-09-23T02:07:19.454Z,9.91
2022-09-23T02:09:50.846Z,9.92
2022-09-23T02:12:24.133Z,9.98
2022-09-23T02:14:55.578Z,9.99
2022-09-23T02:17:28.641Z,10.03
2022-09-23T02:20:01.781Z,9.98
2022-09-23T02:22:34.639Z,9.95
2022-09-23T02:25:02.521Z,9.91
2022-09-23T02:27:32.394Z,9.97
2022-09-23T02:30:07.668Z,9.92
2022-09-23T02:32:43.753Z,9.90
2022-09-23T02:35:18.879Z,9.89
2022-09-23T02:37:51.833Z,9.84
2022-09-23T02:40:22.884Z,9.89
2022-09-23T02:43:00.413Z,9.80
2022-09-23T02:45:27.918Z,9.99
2022-09-23T02:48:02.161Z,9.94
2022-09-23T02:50:29.476Z,9.96
2022-09-23T02:52:58.860Z,10.02
2022-09-23T02:55:28.980Z,9.90
2022-09-23T02:57:56.462Z,9.94
2022-09-23T03:00:23.937Z,10.12
2022-09-23T03:03:09.269Z,10.00
2022-09-23T03:05:45.451Z,9.90
2022-09-23T03:08:29.075Z,9.90
2022-09-23T03:11:00.147Z,9.82
2022-09-23T03:13:35.276Z,9.79
2022-09-23T03:16:12.407Z,9.78
2022-09-23T03:18:47.093Z,9.70
2022-09-23T03:21:20.614Z,9.66
2022-09-23T03:23:48.861Z,9.76
2022-09-23T03:26:21.820Z,9.72
2022-09-23T03:28:49.841Z,9.75
2022-09-23T03:31:17.602Z,9.78
2022-09-23T03:33:50.649Z,9.75
2022-09-23T03:36:23.018Z,9.69
2022-09-23T03:38:55.421Z,9.67
2022-09-23T03:41:30.048Z,9.68
2022-09-23T03:43:59.694Z,9.68
2022-09-23T03:46:27.020Z,9.64
2022-09-23T03:49:00.426Z,9.67
2022-09-23T03:51:27.673Z,9.71
2022-09-23T03:53:54.885Z,9.70
2022-09-23T03:56:22.124Z,9.60
2022-09-23T03:58:49.432Z,9.53
2022-09-23T04:01:16.705Z,9.67
2022-09-23T04:03:43.997Z,9.54
2022-09-23T04:06:13.080Z,9.50
2022-09-23T04:08:40.417Z,9.52
2022-09-23T04:11:07.700Z,9.57
2022-09-23T04:13:35.117Z,9.55
2022-09-23T04:16:02.595Z,9.48
2022-09-23T04:18:29.910Z,9.48
2022-09-23T04:20:58.278Z,9.50
2022-09-23T04:23:27.503Z,9.45
2022-09-23T04:25:54.923Z,9.48
2022-09-23T04:28:22.333Z,9.39
2022-09-23T04:30:49.467Z,9.48
2022-09-23T04:33:18.315Z,9.31
2022-09-23T04:35:50.079Z,9.43
2022-09-23T04:38:17.933Z,9.22
2022-09-23T04:40:46.672Z,9.22
2022-09-23T04:43:14.995Z,9.23
2022-09-23T04:45:42.493Z,9.19
2022-09-23T04:48:09.861Z,9.23
2022-09-23T04:50:37.652Z,9.15
2022-09-23T04:53:05.325Z,9.19
2022-09-23T04:55:32.956Z,9.20
2022-09-23T04:58:01.769Z,9.17
2022-09-23T05:00:29.023Z,9.12
2022-09-23T05:02:56.598Z,9.11
2022-09-23T05:05:23.766Z,9.15
2022-09-23T05:07:51.134Z,9.15
2022-09-23T05:10:18.317Z,9.09
2022-09-23T05:12:45.651Z,9.10
2022-09-23T05:15:14.937Z,9.06
2022-09-23T05:17:42.365Z,9.04
2022-09-23T05:20:10.023Z,9.13
2022-09-23T05:22:37.691Z,9.08
2022-09-23T05:25:05.660Z,9.09
2022-09-23T05:27:32.857Z,9.10
2022-09-23T05:30:00.115Z,9.02
2022-09-23T05:32:28.721Z,9.02
2022-09-23T05:34:55.985Z,9.09
2022-09-23T05:37:23.265Z,9.10
2022-09-23T05:39:50.490Z,9.13
2022-09-23T05:42:17.692Z,9.09
2022-09-23T05:44:44.860Z,9.10
2022-09-23T05:47:12.100Z,9.11
2022-09-23T05:49:58.674Z,9.06
2022-09-23T05:52:27.315Z,9.07
2022-09-23T05:54:54.576Z,9.06
2022-09-23T05:57:21.917Z,9.12
2022-09-23T05:59:49.076Z,9.12
2022-09-23T06:02:16.365Z,9.14
2022-09-23T06:04:44.986Z,9.18
2022-09-23T06:07:12.186Z,9.19
2022-09-23T06:09:39.402Z,9.22
2022-09-23T06:12:06.888Z,9.28
2022-09-23T06:14:34.263Z,9.30
2022-09-23T06:17:01.416Z,9.32
2022-09-23T06:19:28.708Z,9.45
2022-09-23T06:21:57.957Z,9.49
2022-09-23T06:24:30.837Z,9.52
2022-09-23T06:26:58.725Z,9.61
2022-09-23T06:29:26.030Z,9.68
2022-09-23T06:31:53.271Z,9.86
2022-09-23T06:34:20.967Z,9.96
2022-09-23T06:36:48.360Z,10.09
2022-09-23T06:39:16.964Z,10.12
2022-09-23T06:41:44.712Z,10.24
2022-09-23T06:44:15.271Z,10.34
2022-09-23T06:46:43.130Z,10.48
2022-09-23T06:49:10.417Z,10.55
2022-09-23T06:51:37.704Z,10.67
2022-09-23T06:54:05.065Z,10.75
2022-09-23T06:56:38.481Z,10.83
2022-09-23T06:59:07.589Z,10.92
2022-09-23T07:01:34.933Z,11.13
2022-09-23T07:04:02.282Z,11.11
2022-09-23T07:06:29.596Z,11.12
2022-09-23T07:08:56.893Z,11.12
2022-09-23T07:11:24.196Z,11.19
2022-09-23T07:13:52.705Z,11.27
2022-09-23T07:16:20.259Z,11.24
2022-09-23T07:18:47.489Z,11.35
2022-09-23T07:21:17.055Z,11.36
2022-09-23T07:23:45.868Z,11.45
2022-09-23T07:26:13.455Z,11.50
2022-09-23T07:28:41.261Z,11.63
2022-09-23T07:31:13.262Z,11.85
2022-09-23T07:33:41.750Z,11.90
2022-09-23T07:36:10.791Z,11.93
2022-09-23T07:38:42.802Z,12.17
2022-09-23T07:41:13.326Z,12.22
2022-09-23T07:43:40.696Z,12.10
2022-09-23T07:46:11.056Z,12.43
2022-09-23T07:48:39.018Z,12.43
2022-09-23T07:51:08.062Z,12.53
2022-09-23T07:53:35.348Z,12.54
2022-09-23T07:56:03.309Z,12.72
2022-09-23T07:58:30.671Z,12.98
2022-09-23T08:01:02.154Z,12.94
2022-09-23T08:03:30.826Z,12.87
2022-09-23T08:06:04.528Z,13.17
2022-09-23T08:08:31.874Z,13.26
2022-09-23T08:11:01.463Z,13.19
2022-09-23T08:13:28.696Z,13.35
2022-09-23T08:15:56.017Z,13.50
2022-09-23T08:18:23.245Z,13.73
2022-09-23T08:20:52.032Z,13.90
2022-09-23T08:23:19.860Z,14.08
2022-09-23T08:25:47.540Z,14.10
2022-09-23T08:28:15.764Z,14.34
2022-09-23T08:30:43.845Z,14.35
2022-09-23T08:33:11.783Z,14.40
2022-09-23T08:35:39.304Z,14.50
2022-09-23T08:38:08.314Z,14.42
2022-09-23T08:40:38.921Z,14.46
2022-09-23T08:43:06.757Z,14.59
2022-09-23T08:45:36.392Z,14.45
2022-09-23T08:48:13.163Z,14.78
2022-09-23T08:50:42.154Z,15.04
2022-09-23T08:53:20.189Z,15.26
2022-09-23T08:55:49.957Z,15.29
2022-09-23T08:58:40.641Z,15.22
2022-09-23T09:01:15.582Z,15.86
2022-09-23T09:03:47.167Z,15.99
2022-09-23T09:06:19.273Z,16.05
2022-09-23T09:08:54.724Z,16.59
2022-09-23T09:11:23.644Z,16.62
2022-09-23T09:13:59.119Z,16.90
2022-09-23T09:16:59.508Z,17.13
2022-09-23T09:19:50.747Z,17.39
2022-09-23T09:22:21.189Z,17.09
2022-09-23T09:24:50.388Z,17.30
2022-09-23T09:27:17.593Z,17.07
2022-09-23T09:29:49.836Z,18.00
2022-09-23T09:32:28.810Z,17.23
2022-09-23T09:35:00.256Z,17.91
2022-09-23T09:37:33.066Z,17.56
2022-09-23T09:40:02.038Z,17.51
2022-09-23T09:42:37.103Z,17.55
2022-09-23T09:45:15.073Z,17.76
2022-09-23T09:47:50.663Z,17.78
2022-09-23T09:50:38.967Z,17.90
2022-09-23T09:53:16.025Z,17.96
2022-09-23T09:55:45.265Z,18.51
2022-09-23T09:58:13.926Z,18.01
2022-09-23T10:00:42.785Z,17.76
2022-09-23T10:03:34.217Z,18.07
2022-09-23T10:06:14.117Z,18.43
2022-09-23T10:08:46.948Z,18.10
2022-09-23T10:11:17.315Z,18.53
2022-09-23T10:14:03.007Z,18.50
2022-09-23T10:16:32.290Z,18.08
2022-09-23T10:19:00.607Z,18.40
2022-09-23T10:21:33.712Z,18.85
2022-09-23T10:24:03.539Z,18.62
2022-09-23T10:26:34.378Z,19.00
2022-09-23T10:29:03.912Z,18.44
2022-09-23T10:31:32.704Z,18.83
2022-09-23T10:34:02.004Z,18.81
2022-09-23T10:36:31.402Z,19.31
2022-09-23T10:39:01.110Z,18.87
2022-09-23T10:41:39.842Z,19.19
2022-09-23T10:44:23.998Z,18.91
2022-09-23T10:47:04.566Z,18.97
2022-09-23T10:49:45.791Z,18.34
2022-09-23T10:52:44.329Z,18.60
2022-09-23T10:55:23.756Z,18.84
2022-09-23T10:58:12.631Z,19.19
2022-09-23T11:00:47.401Z,19.64
2022-09-23T11:03:42.989Z,19.91
2022-09-23T11:06:19.209Z,20.70
2022-09-23T11:08:58.661Z,20.90
2022-09-23T11:11:37.443Z,21.42
2022-09-23T11:14:22.789Z,21.10
2022-09-23T11:17:08.015Z,21.27
2022-09-23T11:19:54.197Z,20.89
2022-09-23T11:22:33.832Z,20.57
2022-09-23T11:25:19.473Z,20.66
2022-09-23T11:28:04.132Z,21.13
2022-09-23T11:30:41.444Z,21.32
2022-09-23T11:33:27.729Z,21.30
2022-09-23T11:35:59.558Z,20.44
2022-09-23T11:38:35.811Z,20.76
2022-09-23T11:41:17.749Z,20.38
2022-09-23T11:43:48.068Z,20.22
2022-09-23T11:46:23.597Z,20.02
2022-09-23T11:48:56.925Z,20.41
2022-09-23T11:51:29.398Z,20.42
2022-09-23T11:54:01.868Z,20.69
2022-09-23T11:56:36.175Z,19.85
2022-09-23T11:59:10.380Z,19.28
2022-09-23T12:01:45.819Z,19.77
2022-09-23T12:04:23.674Z,19.88
2022-09-23T12:06:56.778Z,19.90
2022-09-23T12:09:53.943Z,19.88
2022-09-23T12:12:27.138Z,19.82
2022-09-23T12:15:01.444Z,19.58
2022-09-23T12:17:47.848Z,19.70
2022-09-23T12:20:37.973Z,19.34
2022-09-23T12:23:20.441Z,19.44
2022-09-23T12:25:52.336Z,19.28
2022-09-23T12:28:22.414Z,19.44
2022-09-23T12:30:52.424Z,19.28
2022-09-23T12:33:23.892Z,19.65
2022-09-23T12:35:53.020Z,19.21
2022-09-23T12:38:24.594Z,19.02
2022-09-23T12:40:53.193Z,19.11
2022-09-23T12:43:28.413Z,19.28
2022-09-23T12:46:15.887Z,19.16
2022-09-23T12:48:58.353Z,19.30
2022-09-23T12:51:26.496Z,19.25
2022-09-23T12:53:59.342Z,19.20
2022-09-23T12:56:28.997Z,18.99
2022-09-23T12:59:17.326Z,19.04
2022-09-23T13:01:44.892Z,18.87
2022-09-23T13:04:30.149Z,19.24
2022-09-23T13:07:05.024Z,19.23
2022-09-23T13:09:39.272Z,19.05
2022-09-23T13:12:13.005Z,19.05
2022-09-23T13:14:45.119Z,19.11
2022-09-23T13:17:23.998Z,19.50
2022-09-23T13:20:01.404Z,19.35
2022-09-23T13:23:15.646Z,19.31
2022-09-23T13:25:43.840Z,19.60
2022-09-23T13:28:23.599Z,19.71
2022-09-23T13:30:51.134Z,19.21
2022-09-23T13:33:26.588Z,19.38
2022-09-23T13:35:59.861Z,19.27
2022-09-23T13:38:28.926Z,19.32
2022-09-23T13:40:59.958Z,18.96
2022-09-23T13:43:30.735Z,18.69
2022-09-23T13:45:59.101Z,18.67
2022-09-23T13:48:26.977Z,18.59
2022-09-23T13:50:55.900Z,18.41
2022-09-23T13:53:26.918Z,18.46
2022-09-23T13:56:02.240Z,18.53
2022-09-23T13:58:31.141Z,18.75
2022-09-23T14:00:58.578Z,18.71
2022-09-23T14:03:32.397Z,18.74
2022-09-23T14:06:09.547Z,18.55
2022-09-23T14:08:39.692Z,18.55
2022-09-23T14:11:07.110Z,18.60
2022-09-23T14:13:42.518Z,18.39
2022-09-23T14:16:12.314Z,18.56
2022-09-23T14:18:42.985Z,18.46
2022-09-23T14:21:31.364Z,18.33
2022-09-23T14:24:11.969Z,18.39
2022-09-23T14:26:40.619Z,18.30
2022-09-23T14:29:13.666Z,18.15
2022-09-23T14:31:41.487Z,18.57
2022-09-23T14:34:42.388Z,18.38
2022-09-23T14:37:27.888Z,18.21
2022-09-23T14:39:57.824Z,18.32
2022-09-23T14:42:25.282Z,18.16
2022-09-23T14:44:52.492Z,18.17
2022-09-23T14:47:19.759Z,18.21
2022-09-23T14:49:47.698Z,17.97
2022-09-23T14:52:16.998Z,17.98
2022-09-23T14:54:45.276Z,17.77
2022-09-23T14:57:25.847Z,17.67
2022-09-23T14:59:55.687Z,17.65
2022-09-23T15:02:34.174Z,17.74
2022-09-23T15:05:19.412Z,17.57
2022-09-23T15:07:50.507Z,17.68
2022-09-23T15:10:21.377Z,17.42
2022-09-23T15:12:49.465Z,17.19
2022-09-23T15:15:17.837Z,16.94
2022-09-23T15:17:45.577Z,16.80
2022-09-23T15:20:23.057Z,16.73
2022-09-23T15:22:53.685Z,16.72
2022-09-23T15:25:25.296Z,16.77
2022-09-23T15:28:04.561Z,16.88
2022-09-23T15:30:31.925Z,16.83
2022-09-23T15:32:59.109Z,16.82
2022-09-23T15:35:28.109Z,16.82
2022-09-23T15:37:58.666Z,16.69
2022-09-23T15:40:28.233Z,16.53
2022-09-23T15:42:57.628Z,16.45
2022-09-23T15:45:32.221Z,16.47
2022-09-23T15:48:04.236Z,16.36
2022-09-23T15:50:33.761Z,16.33
2022-09-23T15:53:02.719Z,16.29
2022-09-23T15:55:30.149Z,16.21
2022-09-23T15:57:57.421Z,16.16
2022-09-23T16:00:24.678Z,16.07
2022-09-23T16:02:52.305Z,15.98
2022-09-23T16:05:25.200Z,15.93
2022-09-23T16:07:52.518Z,15.93
2022-09-23T16:10:22.741Z,15.85
2022-09-23T16:12:52.165Z,15.79
2022-09-23T16:15:21.654Z,15.77
2022-09-23T16:17:49.322Z,15.69
2022-09-23T16:20:17.053Z,15.59
2022-09-23T16:22:52.197Z,15.58
2022-09-23T16:25:23.107Z,15.50
2022-09-23T16:27:50.350Z,15.50
2022-09-23T16:30:17.747Z,15.45
2022-09-23T16:32:45.020Z,15.44
2022-09-23T16:35:12.303Z,15.39
2022-09-23T16:37:39.567Z,15.41
2022-09-23T16:40:08.108Z,15.44
2022-09-23T16:42:36.735Z,15.45
2022-09-23T16:45:04.725Z,15.48
2022-09-23T16:47:31.917Z,15.47
2022-09-23T16:49:59.189Z,15.45
2022-09-23T16:52:26.432Z,15.43
2022-09-23T16:54:53.680Z,15.38
2022-09-23T16:57:20.894Z,15.37
2022-09-23T16:59:49.497Z,15.35
2022-09-23T17:02:16.850Z,15.28
2022-09-23T17:04:44.187Z,15.27
2022-09-23T17:07:11.399Z,15.28
2022-09-23T17:09:38.548Z,15.27
2022-09-23T17:12:12.520Z,15.25
2022-09-23T17:14:39.787Z,15.19
2022-09-23T17:17:08.500Z,15.21
2022-09-23T17:19:37.725Z,15.22
2022-09-23T17:22:04.978Z,15.30
2022-09-23T17:24:32.468Z,15.32
2022-09-23T17:26:59.784Z,15.37
2022-09-23T17:29:27.025Z,15.36
2022-09-23T17:31:54.365Z,15.36
2022-09-23T17:34:22.993Z,15.35
2022-09-23T17:36:50.228Z,15.31
2022-09-23T17:39:17.819Z,15.31
2022-09-23T17:41:45.059Z,15.31
2022-09-23T17:44:12.747Z,15.26
2022-09-23T17:46:40.007Z,15.28
2022-09-23T17:49:07.416Z,15.26
2022-09-23T17:51:36.077Z,15.26
2022-09-23T17:54:03.593Z,15.28
2022-09-23T17:56:30.790Z,15.24
2022-09-23T17:59:00.966Z,15.24
2022-09-23T18:01:29.217Z,15.23
2022-09-23T18:03:57.712Z,15.16
2022-09-23T18:06:27.487Z,15.09
2022-09-23T18:08:56.213Z,15.08
2022-09-23T18:11:24.858Z,15.03
2022-09-23T18:13:53.590Z,14.99
2022-09-23T18:16:22.729Z,15.00
2022-09-23T18:18:51.133Z,14.94
2022-09-23T18:21:18.496Z,14.96
2022-09-23T18:23:46.091Z,14.94
2022-09-23T18:26:16.147Z,14.93
2022-09-23T18:28:43.454Z,14.94
2022-09-23T18:31:11.684Z,14.97
2022-09-23T18:33:39.175Z,14.95
2022-09-23T18:36:07.869Z,14.90
2022-09-23T18:38:35.294Z,14.93
2022-09-23T18:41:02.858Z,14.91
2022-09-23T18:43:37.228Z,14.90
2022-09-23T18:46:11.095Z,14.94
2022-09-23T18:48:38.618Z,14.89
2022-09-23T18:51:07.248Z,14.91
2022-09-23T18:53:34.488Z,14.92
2022-09-23T18:56:05.004Z,14.93
2022-09-23T18:58:33.649Z,14.91
2022-09-23T19:01:05.919Z,14.89
2022-09-23T19:03:33.696Z,14.88
2022-09-23T19:06:02.282Z,14.89
2022-09-23T19:08:29.510Z,14.87
2022-09-23T19:10:57.180Z,14.89
2022-09-23T19:13:24.610Z,14.87
2022-09-23T19:15:53.215Z,14.85
2022-09-23T19:18:20.440Z,14.81
2022-09-23T19:20:51.272Z,14.80
2022-09-23T19:23:19.147Z,14.77
2022-09-23T19:25:46.956Z,14.77
2022-09-23T19:28:14.301Z,14.77
2022-09-23T19:30:41.491Z,14.74
2022-09-23T19:33:10.189Z,14.75
2022-09-23T19:35:45.824Z,14.74
2022-09-23T19:38:13.288Z,14.80
2022-09-23T19:40:40.586Z,14.77
2022-09-23T19:43:07.835Z,14.76
2022-09-23T19:45:35.086Z,14.78
2022-09-23T19:48:02.787Z,14.81
2022-09-23T19:50:31.370Z,14.80
2022-09-23T19:52:58.660Z,14.85
2022-09-23T19:55:25.849Z,14.80
2022-09-23T19:57:53.049Z,14.76
2022-09-23T20:00:20.325Z,14.76
2022-09-23T20:02:47.629Z,14.77
2022-09-23T20:05:19.690Z,14.75
2022-09-23T20:07:49.128Z,14.78
2022-09-23T20:10:16.536Z,14.75
2022-09-23T20:12:44.082Z,14.75
2022-09-23T20:15:11.454Z,14.69
2022-09-23T20:17:38.667Z,14.68
2022-09-23T20:20:06.805Z,14.63
2022-09-23T20:22:33.977Z,14.60
2022-09-23T20:25:02.773Z,14.59
2022-09-23T20:27:30.945Z,14.61
2022-09-23T20:29:58.202Z,14.59
2022-09-23T20:32:25.448Z,14.58
2022-09-23T20:34:52.699Z,14.53
2022-09-23T20:37:22.237Z,14.48
2022-09-23T20:39:51.146Z,14.47
2022-09-23T20:42:20.262Z,14.44
2022-09-23T20:44:47.534Z,14.44
2022-09-23T20:47:16.966Z,14.42
2022-09-23T20:49:45.665Z,14.38
2022-09-23T20:52:14.837Z,14.36
2022-09-23T20:54:42.787Z,14.38
2022-09-23T20:57:11.832Z,14.36
2022-09-23T20:59:40.710Z,14.37
2022-09-23T21:02:08.094Z,14.27
2022-09-23T21:04:35.408Z,14.17
2022-09-23T21:07:02.732Z,14.06
2022-09-23T21:09:30.060Z,13.99
2022-09-23T21:11:57.545Z,13.89
2022-09-23T21:14:24.719Z,13.83
2022-09-23T21:16:53.351Z,13.66
2022-09-23T21:19:20.697Z,13.59
2022-09-23T21:21:47.974Z,13.45
2022-09-23T21:24:48.721Z,13.40
2022-09-23T21:27:02.474Z,13.31
2022-09-23T21:29:29.759Z,13.22
2022-09-23T21:31:58.412Z,13.19
2022-09-23T21:34:25.875Z,13.12
2022-09-23T21:36:53.117Z,13.13
2022-09-23T21:39:20.337Z,13.02
2022-09-23T21:41:47.649Z,12.95
2022-09-23T21:44:14.846Z,12.90
2022-09-23T21:46:42.220Z,12.96
2022-09-23T21:49:10.943Z,13.12
2022-09-23T21:51:39.334Z,13.05
2022-09-23T21:54:10.361Z,13.14
2022-09-23T21:56:37.665Z,13.15
2022-09-23T21:59:05.270Z,13.19
2022-09-23T22:01:34.186Z,13.16
2022-09-23T22:04:04.063Z,13.18
2022-09-23T22:06:32.870Z,13.14
2022-09-23T22:09:03.884Z,13.14
2022-09-23T22:11:32.906Z,13.16
2022-09-23T22:14:03.185Z,13.13
2022-09-23T22:16:30.517Z,13.12
2022-09-23T22:18:58.909Z,13.05
2022-09-23T22:21:28.891Z,13.02
2022-09-23T22:23:59.631Z,13.05
2022-09-23T22:26:27.603Z,13.06
2022-09-23T22:28:54.889Z,13.03
2022-09-23T22:31:22.189Z,13.08
2022-09-23T22:33:49.612Z,13.03
2022-09-23T22:36:16.878Z,13.14
2022-09-23T22:38:44.304Z,13.12
2022-09-23T22:41:13.725Z,13.18
2022-09-23T22:43:40.926Z,13.07
2022-09-23T22:46:08.266Z,13.01
2022-09-23T22:48:35.513Z,13.13
2022-09-23T22:51:04.307Z,12.99
2022-09-23T22:53:31.606Z,12.99
2022-09-23T22:55:59.556Z,13.00
2022-09-23T22:58:32.534Z,12.98
2022-09-23T23:00:59.994Z,12.92
2022-09-23T23:03:27.301Z,12.87
2022-09-23T23:05:54.673Z,12.92
2022-09-23T23:08:21.935Z,13.00
2022-09-23T23:10:49.217Z,12.95
2022-09-23T23:13:16.647Z,12.97
2022-09-23T23:15:45.256Z,13.05
2022-09-23T23:18:12.537Z,13.07
2022-09-23T23:20:39.819Z,13.07
2022-09-23T23:23:07.142Z,13.13
2022-09-23T23:25:34.416Z,13.13
2022-09-23T23:28:02.129Z,13.18
2022-09-23T23:30:29.402Z,13.18
2022-09-23T23:32:58.193Z,13.12
2022-09-23T23:35:25.436Z,13.12
2022-09-23T23:37:52.632Z,13.07
2022-09-23T23:40:19.874Z,13.11
2022-09-23T23:42:47.266Z,13.11
2022-09-23T23:45:14.808Z,13.10
2022-09-23T23:47:42.048Z,13.13
2022-09-23T23:50:10.746Z,13.15
2022-09-23T23:52:38.203Z,13.18
2022-09-23T23:55:05.985Z,13.17
2022-09-23T23:57:33.255Z,13.10
